Time;durP1;ratioP1;P1;durP2;ratioP2;P2;SDS_P1;SDS_P2;PMS_P1;PMS_P2;Temp;Humidity;BMP_temperature;BMP_pressure;BME280_temperature;BME280_humidity;BME280_pressure;Samples;Min_cycle;Max_cycle;Signal;HPM_P1;HPM_P2
2021/01/16 00:00:18;;;;;;;4.50;3.67;;;3.80;1.00;;;;;;5111679;28;20499;-59
2021/01/16 00:02:43;;;;;;;4.93;3.60;;;0.80;1.00;;;;;;5108761;28;20444;-57
2021/01/16 00:05:09;;;;;;;6.33;4.40;;;0.50;1.00;;;;;;5110292;28;20450;-59
2021/01/16 00:07:35;;;;;;;4.23;3.80;;;0.30;1.00;;;;;;5112010;28;20666;-59
2021/01/16 00:10:00;;;;;;;5.10;3.93;;;0.30;1.00;;;;;;5108596;28;20435;-60
2021/01/16 00:12:26;;;;;;;5.27;3.50;;;;;;;;;;5111443;28;20577;-58
2021/01/16 00:14:52;;;;;;;4.47;3.63;;;0.20;1.00;;;;;;5109574;28;20597;-59
2021/01/16 00:17:18;;;;;;;5.30;4.00;;;0.30;1.00;;;;;;5111440;28;20443;-57
2021/01/16 00:19:43;;;;;;;6.83;3.70;;;0.30;1.00;;;;;;5111575;28;20228;-58
2021/01/16 00:22:09;;;;;;;4.13;3.47;;;0.20;1.00;;;;;;5111548;28;20186;-58
2021/01/16 00:24:34;;;;;;;6.80;3.57;;;0.30;1.00;;;;;;5111302;28;20194;-59
2021/01/16 00:27:00;;;;;;;4.07;3.40;;;0.10;1.00;;;;;;5111869;28;20178;-58
2021/01/16 00:29:25;;;;;;;6.77;4.07;;;0.00;1.00;;;;;;5110177;28;20663;-58
2021/01/16 00:31:51;;;;;;;4.70;3.40;;;0.10;1.00;;;;;;5107507;28;20275;-59
2021/01/16 00:34:17;;;;;;;4.33;3.43;;;0.10;1.00;;;;;;5105030;28;20225;-58
2021/01/16 00:36:42;;;;;;;4.27;3.67;;;0.10;1.00;;;;;;5110087;28;20210;-58
2021/01/16 00:39:08;;;;;;;4.90;3.60;;;0.20;1.00;;;;;;5111777;28;20215;-59
2021/01/16 00:41:34;;;;;;;6.77;4.10;;;0.20;1.00;;;;;;5111640;28;20183;-59
2021/01/16 00:44:00;;;;;;;4.10;3.13;;;0.10;1.00;;;;;;5110703;28;20189;-58
2021/01/16 00:46:25;;;;;;;7.07;3.27;;;0.20;1.00;;;;;;5111279;28;20801;-58
2021/01/16 00:48:51;;;;;;;4.03;3.37;;;0.20;1.00;;;;;;5111239;28;20202;-58
2021/01/16 00:51:17;;;;;;;5.47;3.23;;;0.20;1.00;;;;;;5109532;28;20688;-58
2021/01/16 00:53:42;;;;;;;3.67;2.90;;;0.10;1.00;;;;;;5111086;28;20238;-58
2021/01/16 00:56:08;;;;;;;3.43;3.03;;;0.00;1.00;;;;;;5111127;28;20178;-58
2021/01/16 00:58:33;;;;;;;5.20;2.93;;;-0.10;1.00;;;;;;5111160;28;20761;-58
2021/01/16 01:00:59;;;;;;;3.73;3.33;;;-0.10;1.00;;;;;;5113034;28;20190;-57
2021/01/16 01:03:24;;;;;;;6.13;3.80;;;-0.10;1.00;;;;;;5110952;27;20194;-59
2021/01/16 01:05:51;;;;;;;4.73;4.23;;;0.00;1.00;;;;;;5112193;27;20194;-58
2021/01/16 01:08:24;;;;;;;8.10;4.60;;;0.00;1.00;;;;;;5113152;28;20202;-59
2021/01/16 01:10:50;;;;;;;5.53;4.23;;;0.00;1.00;;;;;;5112338;28;20488;-58
2021/01/16 01:13:15;;;;;;;5.33;3.60;;;0.10;1.00;;;;;;5114701;28;20436;-58
2021/01/16 01:15:41;;;;;;;4.60;3.50;;;0.00;1.00;;;;;;5112798;28;20598;-58
2021/01/16 01:18:07;;;;;;;6.13;3.73;;;0.10;1.00;;;;;;5113466;28;20194;-57
2021/01/16 01:20:33;;;;;;;5.40;3.47;;;0.10;1.00;;;;;;5109776;28;20178;-57
2021/01/16 01:22:59;;;;;;;3.87;3.20;;;0.10;1.00;;;;;;5110851;28;20178;-58
2021/01/16 01:25:25;;;;;;;7.30;4.40;;;0.10;1.00;;;;;;5110128;28;20514;-59
2021/01/16 01:27:54;;;;;;;7.30;4.70;;;0.10;1.00;;;;;;5113314;28;20482;-58
2021/01/16 01:30:21;;;;;;;5.70;3.50;;;1.70;1.00;;;;;;5111360;28;20602;-59
2021/01/16 01:32:47;;;;;;;5.37;3.60;;;0.10;1.00;;;;;;5110469;27;20468;-58
2021/01/16 01:35:14;;;;;;;5.07;4.40;;;0.10;1.00;;;;;;5110744;28;20450;-58
2021/01/16 01:37:41;;;;;;;5.60;4.10;;;-0.20;1.00;;;;;;5113502;28;20435;-58
2021/01/16 01:40:11;;;;;;;6.10;4.47;;;-0.10;1.00;;;;;;5114588;27;20936;-57
2021/01/16 01:42:37;;;;;;;5.23;3.70;;;-0.10;1.00;;;;;;5113817;28;20586;-58
2021/01/16 01:45:08;;;;;;;8.60;3.70;;;0.00;1.00;;;;;;5107670;28;20455;-57
2021/01/16 01:47:36;;;;;;;6.20;4.87;;;0.10;1.00;;;;;;5113515;28;20484;-60
2021/01/16 01:50:04;;;;;;;6.90;4.57;;;0.20;1.00;;;;;;5111926;28;20991;-59
2021/01/16 01:52:31;;;;;;;4.23;3.40;;;0.30;1.00;;;;;;5113933;28;20830;-59
2021/01/16 01:54:58;;;;;;;4.80;3.80;;;0.40;1.00;;;;;;5113985;28;20474;-58
2021/01/16 01:57:25;;;;;;;5.83;4.33;;;0.40;1.00;;;;;;5114021;28;20432;-57
2021/01/16 01:59:54;;;;;;;7.07;3.57;;;0.50;1.00;;;;;;5112573;28;20440;-57
2021/01/16 02:02:21;;;;;;;4.87;3.60;;;0.40;1.00;;;;;;5107482;28;20452;-58
2021/01/16 02:04:49;;;;;;;5.60;3.77;;;0.30;1.00;;;;;;5110807;28;20516;-57
2021/01/16 02:07:29;;;;;;;6.27;3.87;;;0.30;1.00;;;;;;5106823;28;20439;-57
2021/01/16 02:09:55;;;;;;;9.73;4.60;;;0.20;1.00;;;;;;5112248;28;22743;-56
2021/01/16 02:12:22;;;;;;;6.53;4.10;;;0.20;1.00;;;;;;5113060;28;20439;-58
2021/01/16 02:15:11;;;;;;;4.37;3.33;;;0.20;1.00;;;;;;5110148;28;20444;-59
2021/01/16 02:17:41;;;;;;;4.80;4.10;;;0.20;1.00;;;;;;5108591;27;20454;-59
2021/01/16 02:20:12;;;;;;;7.53;4.67;;;0.30;1.00;;;;;;5112556;28;21184;-58
2021/01/16 02:22:59;;;;;;;5.80;4.27;;;0.10;1.00;;;;;;5111735;28;20439;-56
2021/01/16 02:26:06;;;;;;;5.47;4.10;;;-0.10;1.00;;;;;;5109509;28;20436;-58
2021/01/16 02:28:35;;;;;;;6.57;4.00;;;-0.10;1.00;;;;;;5113105;28;20773;-58
2021/01/16 02:31:04;;;;;;;6.20;5.30;;;-0.10;1.00;;;;;;5113066;27;20508;-59
2021/01/16 02:33:32;;;;;;;5.43;4.43;;;-0.20;1.00;;;;;;5109705;28;20485;-57
2021/01/16 02:36:23;;;;;;;3.63;3.27;;;-0.10;1.00;;;;;;5112832;27;20432;-57
2021/01/16 02:39:13;;;;;;;6.33;4.30;;;-0.20;1.00;;;;;;5110535;28;20774;-58
2021/01/16 02:42:00;;;;;;;6.80;4.80;;;-0.30;1.00;;;;;;5112890;28;20443;-58
2021/01/16 02:44:38;;;;;;;3.73;3.10;;;-0.40;1.00;;;;;;5112950;28;20488;-58
2021/01/16 02:47:32;;;;;;;4.60;3.20;;;-0.30;1.00;;;;;;5109286;28;20483;-58
2021/01/16 02:50:08;;;;;;;3.83;3.10;;;-0.30;1.00;;;;;;5113007;28;20550;-59
2021/01/16 02:52:45;;;;;;;5.93;3.10;;;-0.50;1.00;;;;;;5113018;28;20439;-58
2021/01/16 02:55:11;;;;;;;2.37;2.10;;;-0.70;1.00;;;;;;5111288;28;20527;-57
2021/01/16 02:57:37;;;;;;;4.10;3.40;;;-0.80;1.00;;;;;;5109772;28;20448;-58
2021/01/16 03:00:08;;;;;;;4.90;3.10;;;-0.70;1.00;;;;;;5110775;28;20535;-58
2021/01/16 03:02:33;;;;;;;3.73;2.70;;;-0.60;1.00;;;;;;5112550;28;20182;-58
2021/01/16 03:04:59;;;;;;;5.80;3.50;;;-0.60;1.00;;;;;;5109936;28;20854;-59
2021/01/16 03:07:27;;;;;;;5.60;3.63;;;-0.60;1.00;;;;;;5112641;28;20185;-58
2021/01/16 03:09:56;;;;;;;4.63;3.70;;;-0.60;1.00;;;;;;5109245;28;20251;-58
2021/01/16 03:12:22;;;;;;;3.87;2.57;;;-0.60;1.00;;;;;;5112521;27;20432;-58
2021/01/16 03:14:55;;;;;;;4.13;3.23;;;-0.70;1.00;;;;;;5110969;28;20475;-58
2021/01/16 03:17:27;;;;;;;5.27;3.60;;;-0.80;1.00;;;;;;5105813;27;20863;-57
2021/01/16 03:19:52;;;;;;;3.17;2.57;;;-0.80;1.00;;;;;;5108266;28;20478;-58
2021/01/16 03:22:24;;;;;;;5.30;3.67;;;-0.80;1.00;;;;;;5110262;28;20467;-57
2021/01/16 03:24:52;;;;;;;4.13;3.47;;;-0.90;1.00;;;;;;5112154;28;20632;-58
2021/01/16 03:27:18;;;;;;;3.47;2.70;;;-0.90;1.00;;;;;;5109428;28;20440;-57
2021/01/16 03:29:45;;;;;;;5.10;2.37;;;-1.10;1.00;;;;;;5107253;28;20511;-57
2021/01/16 03:32:11;;;;;;;3.50;3.20;;;-1.10;1.00;;;;;;5110002;27;20519;-57
2021/01/16 03:34:39;;;;;;;4.87;3.30;;;-1.00;1.00;;;;;;5108630;28;20794;-58
2021/01/16 03:37:05;;;;;;;4.67;2.67;;;-1.10;1.00;;;;;;5107685;28;20446;-58
2021/01/16 03:39:31;;;;;;;6.57;2.73;;;-1.10;1.00;;;;;;5105618;28;20445;-57
2021/01/16 03:41:56;;;;;;;3.37;2.13;;;-1.10;1.00;;;;;;5111088;28;20315;-58
2021/01/16 03:44:22;;;;;;;3.90;2.60;;;-1.10;1.00;;;;;;5110185;28;21021;-58
2021/01/16 03:46:47;;;;;;;3.27;2.40;;;-1.10;1.00;;;;;;5111941;28;20178;-58
2021/01/16 03:49:13;;;;;;;4.83;3.10;;;-1.20;1.00;;;;;;5109631;28;20206;-58
2021/01/16 03:51:39;;;;;;;3.43;2.70;;;-1.20;1.00;;;;;;5107367;28;20177;-58
2021/01/16 03:54:05;;;;;;;3.83;2.77;;;-1.20;1.00;;;;;;5108565;28;20269;-58
2021/01/16 03:56:30;;;;;;;5.17;2.90;;;-1.20;1.00;;;;;;5108785;28;20627;-57
2021/01/16 03:58:56;;;;;;;4.60;3.47;;;-1.20;1.00;;;;;;5111148;28;20182;-57
2021/01/16 04:01:22;;;;;;;3.43;3.10;;;-1.10;1.00;;;;;;5108032;28;20558;-57
2021/01/16 04:03:47;;;;;;;4.57;3.07;;;-1.10;1.00;;;;;;5112255;28;20174;-57
2021/01/16 04:06:17;;;;;;;3.87;3.00;;;-1.10;1.00;;;;;;5110996;28;20394;-59
2021/01/16 04:08:43;;;;;;;4.80;3.37;;;-1.00;1.00;;;;;;5107466;28;20274;-58
2021/01/16 04:11:09;;;;;;;5.47;3.83;;;-1.10;1.00;;;;;;5111969;28;20520;-58
2021/01/16 04:13:35;;;;;;;6.80;4.50;;;-1.00;1.00;;;;;;5111582;28;20462;-58
2021/01/16 04:16:01;;;;;;;4.10;3.00;;;-1.00;1.00;;;;;;5111382;28;20182;-58
2021/01/16 04:18:26;;;;;;;4.20;3.67;;;-1.00;1.00;;;;;;5109815;28;20443;-57
2021/01/16 04:20:52;;;;;;;4.70;3.43;;;-0.90;1.00;;;;;;5110810;28;20186;-58
2021/01/16 04:23:18;;;;;;;5.10;3.30;;;-0.90;1.00;;;;;;5110655;28;20186;-58
2021/01/16 04:25:43;;;;;;;6.10;4.30;;;-0.80;1.00;;;;;;5107551;28;20239;-58
2021/01/16 04:28:09;;;;;;;4.70;3.30;;;-0.70;1.00;;;;;;5109341;28;20644;-57
2021/01/16 04:30:35;;;;;;;5.77;4.00;;;-0.70;1.00;;;;;;5111181;28;20265;-58
2021/01/16 04:33:00;;;;;;;5.13;3.67;;;-0.70;1.00;;;;;;5111178;28;20186;-57
2021/01/16 04:35:26;;;;;;;8.00;3.50;;;-0.70;1.00;;;;;;5108797;28;20222;-57
2021/01/16 04:37:52;;;;;;;5.70;3.10;;;-0.70;1.00;;;;;;5115676;28;20613;-58
2021/01/16 04:40:17;;;;;;;3.33;2.90;;;-0.60;1.00;;;;;;5113544;28;20280;-58
2021/01/16 04:42:45;;;;;;;5.23;3.40;;;-0.60;1.00;;;;;;5113853;28;20189;-58
2021/01/16 04:45:13;;;;;;;4.27;2.63;;;-0.80;1.00;;;;;;5113880;27;20189;-57
2021/01/16 04:47:42;;;;;;;3.30;2.50;;;-0.80;1.00;;;;;;5113913;28;21032;-58
2021/01/16 04:50:15;;;;;;;3.93;2.90;;;-0.80;1.00;;;;;;5115407;28;20883;-58
2021/01/16 04:52:42;;;;;;;4.47;3.40;;;-0.70;1.00;;;;;;5114800;28;20523;-58
2021/01/16 04:55:10;;;;;;;4.30;3.30;;;-0.60;1.00;;;;;;5113533;28;20436;-57
2021/01/16 04:57:37;;;;;;;4.77;3.63;;;-0.80;1.00;;;;;;5113573;28;20953;-58
2021/01/16 05:00:11;;;;;;;4.50;3.60;;;-0.70;1.00;;;;;;5115684;28;20432;-58
2021/01/16 05:02:39;;;;;;;4.63;3.37;;;-0.80;1.00;;;;;;5112340;28;20435;-57
2021/01/16 05:05:14;;;;;;;4.63;3.63;;;-0.70;1.00;;;;;;5113923;28;20515;-58
2021/01/16 05:07:40;;;;;;;5.13;3.77;;;-0.70;1.00;;;;;;5115074;28;20431;-57
2021/01/16 05:10:09;;;;;;;3.67;3.03;;;-0.70;1.00;;;;;;5112092;28;20459;-58
2021/01/16 05:13:03;;;;;;;6.13;3.33;;;-0.70;1.00;;;;;;5112355;28;20591;-57
2021/01/16 05:15:30;;;;;;;3.80;3.20;;;-0.70;1.00;;;;;;5114499;28;20450;-58
2021/01/16 05:18:07;;;;;;;7.73;4.30;;;-0.60;1.00;;;;;;5111171;28;20508;-58
2021/01/16 05:20:34;;;;;;;6.10;4.50;;;-0.60;1.00;;;;;;5114542;28;20458;-57
2021/01/16 05:23:12;;;;;;;6.40;4.20;;;-0.50;1.00;;;;;;5111965;28;20435;-57
2021/01/16 05:25:58;;;;;;;6.43;3.70;;;-0.50;1.00;;;;;;5113699;28;20439;-58
2021/01/16 05:28:25;;;;;;;5.40;3.63;;;-0.50;1.00;;;;;;5112918;28;20785;-58
2021/01/16 05:30:59;;;;;;;7.00;3.67;;;-0.60;1.00;;;;;;5114418;28;21032;-58
2021/01/16 05:33:36;;;;;;;3.40;2.87;;;-0.60;1.00;;;;;;5114744;28;20471;-58
2021/01/16 05:36:05;;;;;;;4.20;3.47;;;-0.60;1.00;;;;;;5111454;28;20446;-59
2021/01/16 05:38:39;;;;;;;4.63;3.23;;;-0.70;1.00;;;;;;5113520;28;20458;-58
2021/01/16 05:41:09;;;;;;;5.90;2.80;;;-0.70;1.00;;;;;;5111483;28;20476;-58
2021/01/16 05:43:36;;;;;;;4.47;3.20;;;-0.60;1.00;;;;;;5112001;28;20849;-58
2021/01/16 05:46:05;;;;;;;3.87;3.47;;;-0.50;1.00;;;;;;5113738;28;20427;-58
2021/01/16 05:48:33;;;;;;;5.23;3.40;;;1.50;1.00;;;;;;5113383;28;20605;-58
2021/01/16 05:51:00;;;;;;;4.07;3.10;;;-0.60;1.00;;;;;;5110219;27;20439;-58
2021/01/16 05:53:27;;;;;;;5.60;3.90;;;-0.60;1.00;;;;;;5113927;28;20435;-59
2021/01/16 05:55:54;;;;;;;6.87;3.77;;;-0.60;1.00;;;;;;5112243;28;20458;-58
2021/01/16 05:58:20;;;;;;;2.47;2.27;;;-0.70;1.00;;;;;;5112909;28;20500;-58
2021/01/16 06:00:50;;;;;;;3.60;3.07;;;-0.70;1.00;;;;;;5110092;28;20444;-58
2021/01/16 06:03:18;;;;;;;3.80;2.90;;;-0.80;1.00;;;;;;5113252;28;20435;-57
2021/01/16 06:05:51;;;;;;;5.10;3.20;;;-0.80;1.00;;;;;;5112523;28;20782;-58
2021/01/16 06:08:21;;;;;;;9.23;3.30;;;-0.70;1.00;;;;;;5110366;28;20651;-58
2021/01/16 06:10:56;;;;;;;4.87;2.77;;;-0.60;1.00;;;;;;5112586;28;20432;-58
2021/01/16 06:13:26;;;;;;;3.10;2.37;;;-0.50;1.00;;;;;;5110213;28;20804;-58
2021/01/16 06:15:53;;;;;;;2.70;2.50;;;-0.40;1.00;;;;;;5108869;28;20432;-58
2021/01/16 06:18:34;;;;;;;3.03;2.47;;;-0.40;1.00;;;;;;5110882;28;20444;-58
2021/01/16 06:21:00;;;;;;;3.57;2.70;;;-0.30;1.00;;;;;;5113575;28;20439;-59
2021/01/16 06:23:29;;;;;;;3.43;3.13;;;-0.30;1.00;;;;;;5112402;28;20440;-57
2021/01/16 06:25:56;;;;;;;4.23;2.50;;;-0.30;1.00;;;;;;5113574;28;20175;-59
2021/01/16 06:28:24;;;;;;;4.63;3.37;;;-0.50;1.00;;;;;;5112386;28;20562;-57
2021/01/16 06:30:56;;;;;;;5.37;2.70;;;-0.50;1.00;;;;;;5112383;28;20471;-58
2021/01/16 06:33:27;;;;;;;5.07;4.57;;;-0.60;1.00;;;;;;5106669;28;20444;-60
2021/01/16 06:36:04;;;;;;;5.00;3.00;;;-0.50;1.00;;;;;;5108867;28;20438;-57
2021/01/16 06:38:35;;;;;;;5.57;3.80;;;-0.70;1.00;;;;;;5108117;27;20530;-58
2021/01/16 06:41:16;;;;;;;3.97;3.43;;;-0.70;1.00;;;;;;5109006;28;20435;-58
2021/01/16 06:43:45;;;;;;;5.40;3.20;;;-0.70;1.00;;;;;;5111992;28;20432;-58
2021/01/16 06:46:13;;;;;;;5.47;4.10;;;-0.60;1.00;;;;;;5112986;28;20427;-58
2021/01/16 06:48:42;;;;;;;6.50;3.60;;;-0.60;1.00;;;;;;5110372;27;20948;-58
2021/01/16 06:51:23;;;;;;;5.73;4.07;;;-0.60;1.00;;;;;;5110518;28;20522;-58
2021/01/16 06:53:50;;;;;;;4.93;3.87;;;-0.70;1.00;;;;;;5112747;27;20435;-57
2021/01/16 06:56:25;;;;;;;5.17;3.50;;;-0.70;1.00;;;;;;5110370;28;20450;-57
2021/01/16 06:58:54;;;;;;;5.50;3.67;;;-0.80;1.00;;;;;;5110694;28;20525;-58
2021/01/16 07:01:31;;;;;;;6.10;4.03;;;-0.80;1.00;;;;;;5112413;28;20466;-58
2021/01/16 07:04:03;;;;;;;7.13;4.30;;;-0.80;1.00;;;;;;5108395;28;20530;-57
2021/01/16 07:06:45;;;;;;;5.53;3.47;;;-1.00;1.00;;;;;;5133279;27;20426;-56
2021/01/16 07:09:18;;;;;;;4.50;3.27;;;-1.00;1.00;;;;;;5107815;28;20474;-59
2021/01/16 07:11:52;;;;;;;6.63;3.90;;;-0.80;1.00;;;;;;5112727;27;20435;-58
2021/01/16 07:14:21;;;;;;;4.20;3.43;;;-0.70;1.00;;;;;;5112452;27;20435;-58
2021/01/16 07:16:49;;;;;;;4.60;3.73;;;-0.80;1.00;;;;;;5108020;28;20531;-58
2021/01/16 07:19:22;;;;;;;4.40;3.63;;;-0.70;1.00;;;;;;5111952;28;20940;-58
2021/01/16 07:21:49;;;;;;;4.80;3.80;;;-0.70;1.00;;;;;;5111143;28;20444;-58
2021/01/16 07:24:17;;;;;;;6.07;4.00;;;-0.80;1.00;;;;;;5121712;27;20529;-58
2021/01/16 07:26:52;;;;;;;6.83;3.93;;;-0.70;1.00;;;;;;5118544;27;20544;-58
2021/01/16 07:29:20;;;;;;;3.87;3.33;;;;;;;;;;5125015;27;20463;-59
2021/01/16 07:31:46;;;;;;;4.10;3.70;;;-0.60;1.00;;;;;;5111601;28;20643;-58
2021/01/16 07:34:13;;;;;;;7.60;4.47;;;-1.60;1.00;;;;;;5114074;27;20443;-58
2021/01/16 07:36:39;;;;;;;5.70;4.20;;;-0.70;1.00;;;;;;5111781;28;20459;-57
2021/01/16 07:39:10;;;;;;;5.57;4.00;;;-0.50;1.00;;;;;;5111807;28;20508;-58
2021/01/16 07:41:36;;;;;;;7.00;4.10;;;-0.40;1.00;;;;;;5111968;28;20428;-57
2021/01/16 07:44:10;;;;;;;6.83;4.07;;;-0.50;1.00;;;;;;5111497;28;20440;-59
2021/01/16 07:46:41;;;;;;;7.27;4.47;;;-0.40;1.00;;;;;;5109789;28;20443;-58
2021/01/16 07:49:07;;;;;;;6.50;4.33;;;-0.40;1.00;;;;;;5106708;28;20528;-57
2021/01/16 07:51:34;;;;;;;5.60;3.47;;;-0.40;1.00;;;;;;5111455;28;20436;-56
2021/01/16 07:54:03;;;;;;;7.07;4.90;;;-0.40;1.00;;;;;;5112090;28;20742;-57
2021/01/16 07:56:40;;;;;;;5.50;3.83;;;-0.40;1.00;;;;;;5111405;28;20435;-58
2021/01/16 07:59:28;;;;;;;7.13;4.70;;;-0.40;1.00;;;;;;5107595;28;20438;-57
2021/01/16 08:02:26;;;;;;;5.40;3.90;;;-0.20;1.00;;;;;;5111045;28;20526;-56
2021/01/16 08:05:12;;;;;;;5.83;4.47;;;-0.40;1.00;;;;;;5112666;28;20793;-56
2021/01/16 08:08:20;;;;;;;7.10;4.83;;;-0.30;1.00;;;;;;5109960;28;20437;-56
2021/01/16 08:10:53;;;;;;;6.17;5.17;;;-0.30;1.00;;;;;;5124424;27;20426;-56
2021/01/16 08:13:22;;;;;;;7.53;5.23;;;-0.30;1.00;;;;;;5131881;27;20434;-56
2021/01/16 08:15:49;;;;;;;8.40;4.77;;;-0.30;1.00;;;;;;5132620;27;20435;-56
2021/01/16 08:18:22;;;;;;;6.67;4.90;;;-0.30;1.00;;;;;;5125045;27;20785;-57
2021/01/16 08:20:49;;;;;;;8.53;4.53;;;-0.20;1.00;;;;;;5121658;27;20470;-56
2021/01/16 08:23:23;;;;;;;6.23;4.97;;;-0.30;1.00;;;;;;5130176;27;20438;-57
2021/01/16 08:25:49;;;;;;;8.93;4.80;;;1.60;1.00;;;;;;5118544;27;20427;-57
2021/01/16 08:28:23;;;;;;;5.43;4.80;;;0.00;1.00;;;;;;5125421;27;20503;-56
2021/01/16 08:30:49;;;;;;;8.70;5.47;;;-0.10;1.00;;;;;;5126168;27;20515;-56
2021/01/16 08:33:15;;;;;;;7.13;5.00;;;-0.10;1.00;;;;;;5116346;27;20518;-56
2021/01/16 08:35:40;;;;;;;7.87;5.50;;;-0.30;1.00;;;;;;5115681;28;20170;-55
2021/01/16 08:38:17;;;;;;;7.50;5.00;;;-0.20;1.00;;;;;;5117405;27;20182;-56
2021/01/16 08:41:06;;;;;;;9.20;6.10;;;-0.30;1.00;;;;;;5116451;27;20192;-56
2021/01/16 08:43:49;;;;;;;11.10;5.83;;;-0.30;1.00;;;;;;5116130;28;20931;-55
2021/01/16 08:46:21;;;;;;;8.37;5.40;;;-0.20;1.00;;;;;;5116422;28;20419;-56
2021/01/16 08:48:57;;;;;;;5.63;4.80;;;-0.30;1.00;;;;;;5116170;28;20542;-56
2021/01/16 08:51:31;;;;;;;8.30;5.50;;;-0.30;1.00;;;;;;5122696;27;20484;-57
2021/01/16 08:54:11;;;;;;;5.17;4.67;;;-0.30;1.00;;;;;;5117238;27;20431;-57
2021/01/16 08:56:39;;;;;;;6.03;4.80;;;-0.20;1.00;;;;;;5124379;27;20423;-59
2021/01/16 08:59:14;;;;;;;7.63;5.40;;;-0.10;1.00;;;;;;5112300;28;20444;-58
2021/01/16 09:01:40;;;;;;;8.30;5.03;;;-0.20;1.00;;;;;;5115192;27;20526;-59
2021/01/16 09:04:15;;;;;;;8.60;5.70;;;-0.10;1.00;;;;;;5113731;28;20538;-59
2021/01/16 09:06:41;;;;;;;7.50;5.07;;;0.00;1.00;;;;;;5119224;27;20300;-58
2021/01/16 09:09:07;;;;;;;9.60;6.17;;;0.00;1.00;;;;;;5127109;27;21058;-58
2021/01/16 09:11:32;;;;;;;6.33;5.37;;;0.00;1.00;;;;;;5114790;28;20198;-58
2021/01/16 09:14:01;;;;;;;8.20;6.20;;;0.00;1.00;;;;;;5114703;28;20200;-58
2021/01/16 09:16:35;;;;;;;8.73;5.93;;;-0.10;1.00;;;;;;5114392;27;20585;-58
2021/01/16 09:19:00;;;;;;;6.20;4.37;;;-0.20;1.00;;;;;;5113947;28;20981;-60
2021/01/16 09:21:27;;;;;;;7.90;5.47;;;-0.10;1.00;;;;;;5112373;28;20436;-59
2021/01/16 09:23:56;;;;;;;8.90;5.13;;;-0.10;1.00;;;;;;5114754;27;20189;-60
2021/01/16 09:26:24;;;;;;;7.77;5.90;;;-0.30;1.00;;;;;;5121274;27;20443;-59
2021/01/16 09:28:53;;;;;;;7.07;5.30;;;-0.40;1.00;;;;;;5125963;27;20478;-59
2021/01/16 09:31:26;;;;;;;9.80;5.40;;;-0.20;1.00;;;;;;5113219;28;20459;-58
2021/01/16 09:33:54;;;;;;;7.57;5.97;;;-0.20;1.00;;;;;;5113918;28;20483;-58
2021/01/16 09:36:49;;;;;;;9.67;5.90;;;-0.10;1.00;;;;;;5112552;28;20475;-59
2021/01/16 09:39:31;;;;;;;11.17;7.17;;;-0.10;1.00;;;;;;5113968;28;20856;-58
2021/01/16 09:42:01;;;;;;;10.53;5.33;;;0.00;1.00;;;;;;5113900;28;20427;-59
2021/01/16 09:44:39;;;;;;;12.33;8.10;;;;;;;;;;5114159;28;20424;-58
2021/01/16 09:47:25;;;;;;;8.40;5.67;;;0.20;1.00;;;;;;5113891;28;20431;-59
2021/01/16 09:49:52;;;;;;;8.40;6.77;;;0.00;1.00;;;;;;5113902;28;20601;-58
2021/01/16 09:52:19;;;;;;;8.73;6.57;;;0.00;1.00;;;;;;5113839;28;20463;-59
2021/01/16 09:54:45;;;;;;;9.30;6.00;;;0.00;1.00;;;;;;5112425;28;20432;-59
2021/01/16 09:57:11;;;;;;;9.10;6.13;;;0.00;1.00;;;;;;5112196;28;20446;-60
2021/01/16 09:59:36;;;;;;;12.43;7.23;;;0.00;1.00;;;;;;5112540;28;20448;-62
2021/01/16 10:02:13;;;;;;;8.63;6.30;;;0.00;1.00;;;;;;5113828;28;20452;-61
2021/01/16 10:04:46;;;;;;;8.70;5.40;;;0.00;1.00;;;;;;5113334;27;20273;-59
2021/01/16 10:07:16;;;;;;;7.00;5.87;;;0.30;1.00;;;;;;5110564;27;20566;-59
2021/01/16 10:09:44;;;;;;;7.10;5.70;;;0.40;1.00;;;;;;5121266;27;20555;-60
2021/01/16 10:12:33;;;;;;;10.23;6.10;;;0.50;1.00;;;;;;5114545;27;20519;-60
2021/01/16 10:15:23;;;;;;;6.83;4.80;;;0.60;1.00;;;;;;5106151;27;20447;-59
2021/01/16 10:17:53;;;;;;;6.77;4.77;;;0.60;1.00;;;;;;5113358;28;20789;-60
2021/01/16 10:20:19;;;;;;;7.73;5.10;;;0.30;1.00;;;;;;5113392;28;20436;-59
2021/01/16 10:22:52;;;;;;;5.97;4.80;;;0.20;1.00;;;;;;5113178;28;20455;-58
2021/01/16 10:25:22;;;;;;;8.33;5.47;;;0.30;1.00;;;;;;5112182;28;20328;-59
2021/01/16 10:27:49;;;;;;;7.23;5.73;;;0.40;1.00;;;;;;5113011;28;20436;-60
2021/01/16 10:30:30;;;;;;;6.50;4.80;;;0.40;1.00;;;;;;5113038;28;20459;-61
2021/01/16 10:32:56;;;;;;;5.40;4.43;;;0.40;1.00;;;;;;5112241;27;20921;-60
2021/01/16 10:35:31;;;;;;;6.43;5.20;;;0.10;1.00;;;;;;5113313;28;20432;-58
2021/01/16 10:38:00;;;;;;;9.97;5.17;;;0.20;1.00;;;;;;5116358;27;20927;-60
2021/01/16 10:40:26;;;;;;;7.90;5.07;;;0.00;1.00;;;;;;5117057;27;20785;-59
2021/01/16 10:42:56;;;;;;;6.17;4.97;;;0.20;1.00;;;;;;5113311;28;20432;-59
2021/01/16 10:45:29;;;;;;;6.23;4.67;;;0.40;1.00;;;;;;5113124;28;20500;-61
2021/01/16 10:47:56;;;;;;;4.87;4.30;;;0.40;1.00;;;;;;5113251;28;20433;-60
2021/01/16 10:50:29;;;;;;;4.87;3.80;;;0.40;1.00;;;;;;5112551;28;20492;-59
2021/01/16 10:53:06;;;;;;;4.77;3.97;;;0.30;1.00;;;;;;5112519;28;20524;-59
2021/01/16 10:55:53;;;;;;;3.57;2.80;;;0.30;1.00;;;;;;5112311;28;20952;-59
2021/01/16 10:58:27;;;;;;;4.77;4.33;;;0.20;1.00;;;;;;5112464;28;21001;-59
2021/01/16 11:00:57;;;;;;;4.93;4.03;;;0.30;1.00;;;;;;5112152;27;20428;-60
2021/01/16 11:03:35;;;;;;;8.13;6.33;;;0.20;1.00;;;;;;5112550;28;20444;-58
2021/01/16 11:06:04;;;;;;;6.70;5.30;;;0.30;1.00;;;;;;5111720;28;20545;-59
2021/01/16 11:08:32;;;;;;;4.67;4.00;;;0.60;1.00;;;;;;5111339;28;20979;-60
2021/01/16 11:10:58;;;;;;;6.70;4.77;;;0.60;1.00;;;;;;5112568;27;20474;-60
2021/01/16 11:13:26;;;;;;;9.40;5.03;;;0.70;1.00;;;;;;5112052;28;20443;-62
2021/01/16 11:15:54;;;;;;;7.77;4.93;;;0.70;1.00;;;;;;5111159;28;20467;-59
2021/01/16 11:18:28;;;;;;;6.80;5.20;;;0.40;1.00;;;;;;5110433;28;20440;-58
2021/01/16 11:20:59;;;;;;;5.37;4.13;;;0.40;1.00;;;;;;5106270;28;20443;-59
2021/01/16 11:23:31;;;;;;;6.20;4.23;;;0.20;1.00;;;;;;5109703;28;20432;-60
2021/01/16 11:26:05;;;;;;;6.40;4.60;;;0.20;1.00;;;;;;5110981;28;20489;-59
2021/01/16 11:28:45;;;;;;;7.50;5.50;;;0.20;1.00;;;;;;5112405;28;20470;-59
2021/01/16 11:31:35;;;;;;;5.80;4.50;;;0.10;1.00;;;;;;5112005;28;20455;-59
2021/01/16 11:34:18;;;;;;;6.40;4.67;;;0.20;1.00;;;;;;5112246;28;20773;-58
2021/01/16 11:36:59;;;;;;;5.40;4.67;;;0.30;1.00;;;;;;5112595;27;20508;-60
2021/01/16 11:39:44;;;;;;;7.33;5.40;;;0.10;1.00;;;;;;5121972;27;20511;-60
2021/01/16 11:42:12;;;;;;;7.53;5.30;;;0.20;1.00;;;;;;5112175;28;20860;-60
2021/01/16 11:44:53;;;;;;;7.27;5.23;;;0.30;1.00;;;;;;5121121;27;20469;-58
2021/01/16 11:47:19;;;;;;;5.60;4.50;;;0.00;1.00;;;;;;5132649;27;20425;-60
2021/01/16 11:49:46;;;;;;;9.10;6.10;;;0.00;1.00;;;;;;5132516;27;20548;-61
2021/01/16 11:52:12;;;;;;;7.17;5.73;;;0.00;1.00;;;;;;5130836;27;20430;-59
2021/01/16 11:54:38;;;;;;;8.50;5.37;;;0.30;1.00;;;;;;5111622;28;20439;-60
2021/01/16 11:57:08;;;;;;;7.33;5.10;;;2.40;1.00;;;;;;5111200;28;20444;-60
2021/01/16 11:59:35;;;;;;;12.03;5.37;;;0.40;1.00;;;;;;5110568;28;20450;-59
2021/01/16 12:02:01;;;;;;;8.00;5.40;;;0.50;1.00;;;;;;5111660;28;20424;-58
2021/01/16 12:04:27;;;;;;;9.90;6.40;;;0.40;1.00;;;;;;5112248;28;20484;-60
2021/01/16 12:06:53;;;;;;;8.70;6.90;;;0.60;1.00;;;;;;5111925;28;20501;-59
2021/01/16 12:09:20;;;;;;;7.10;6.27;;;;;;;;;;5111937;28;20960;-60
2021/01/16 12:11:53;;;;;;;8.20;7.10;;;0.10;1.00;;;;;;5110638;28;20174;-58
2021/01/16 12:14:19;;;;;;;9.77;6.40;;;0.00;1.00;;;;;;5111916;28;20512;-59
2021/01/16 12:16:45;;;;;;;10.33;7.70;;;0.00;1.00;;;;;;5111833;28;20420;-59
2021/01/16 12:19:15;;;;;;;9.10;7.20;;;0.10;1.00;;;;;;5111867;28;20907;-59
2021/01/16 12:21:48;;;;;;;11.27;7.03;;;0.10;1.00;;;;;;5111824;28;20940;-60
2021/01/16 12:24:15;;;;;;;10.50;7.30;;;0.10;1.00;;;;;;5111529;28;20439;-59
2021/01/16 12:26:50;;;;;;;9.17;6.70;;;0.00;1.00;;;;;;5111844;28;20436;-60
2021/01/16 12:29:29;;;;;;;9.33;8.03;;;0.00;1.00;;;;;;5111416;28;20581;-60
2021/01/16 12:32:02;;;;;;;7.63;5.60;;;-0.10;1.00;;;;;;5111261;28;20459;-59
2021/01/16 12:34:28;;;;;;;17.17;7.40;;;-0.20;1.00;;;;;;5111796;28;20883;-59
2021/01/16 12:36:55;;;;;;;11.43;8.17;;;-0.20;1.00;;;;;;5129300;28;20563;-60
2021/01/16 12:39:21;;;;;;;11.37;6.73;;;-0.10;1.00;;;;;;5132289;27;20441;-59
2021/01/16 12:41:47;;;;;;;9.80;6.83;;;0.00;1.00;;;;;;5132062;27;20435;-60
2021/01/16 12:44:14;;;;;;;9.73;7.20;;;-0.10;1.00;;;;;;5132031;27;20280;-60
2021/01/16 12:46:43;;;;;;;11.40;6.00;;;-0.10;1.00;;;;;;5130798;28;20791;-60
2021/01/16 12:49:11;;;;;;;10.17;7.33;;;-0.10;1.00;;;;;;5131743;27;20565;-60
2021/01/16 12:51:43;;;;;;;9.70;6.83;;;0.00;1.00;;;;;;5131037;28;20522;-60
2021/01/16 12:54:16;;;;;;;10.70;7.00;;;0.00;1.00;;;;;;5112181;27;20446;-61
2021/01/16 12:56:43;;;;;;;11.23;7.33;;;0.00;1.00;;;;;;5113186;28;20440;-61
2021/01/16 12:59:14;;;;;;;8.33;6.00;;;-0.10;1.00;;;;;;5115305;28;20431;-59
2021/01/16 13:01:42;;;;;;;12.07;6.70;;;-0.20;1.00;;;;;;5115647;28;20442;-60
2021/01/16 13:04:09;;;;;;;9.10;7.10;;;-0.20;1.00;;;;;;5114986;28;20435;-61
2021/01/16 13:06:37;;;;;;;7.50;6.00;;;-0.10;1.00;;;;;;5115212;27;20466;-60
2021/01/16 13:09:05;;;;;;;8.30;6.23;;;0.00;1.00;;;;;;5114777;28;20487;-62
2021/01/16 13:11:31;;;;;;;11.37;6.90;;;0.10;1.00;;;;;;5114220;28;20822;-59
2021/01/16 13:13:59;;;;;;;10.07;6.57;;;0.30;1.00;;;;;;5113743;28;20439;-60
2021/01/16 13:16:43;;;;;;;12.73;7.70;;;0.20;1.00;;;;;;5114637;28;20446;-60
2021/01/16 13:19:11;;;;;;;5.77;5.13;;;0.20;1.00;;;;;;5114767;28;20836;-60